Time;durP1;ratioP1;P1;durP2;ratioP2;P2;SDS_P1;SDS_P2;PMS_P1;PMS_P2;Temp;Humidity;BMP_temperature;BMP_pressure;BME280_temperature;BME280_humidity;BME280_pressure;Samples;Min_cycle;Max_cycle;Signal;HPM_P1;HPM_P2
2022/09/03 00:01:35;;;;;;;1.20;1.00;;;;;;;15.55;54.24;97950.41;6243988;23;20050;-85
2022/09/03 00:04:16;;;;;;;0.90;0.90;;;;;;;15.63;54.71;97955.34;6216550;23;20023;-86
2022/09/03 00:07:02;;;;;;;1.23;0.82;;;;;;;15.61;54.48;97955.53;6242344;23;20078;-85
2022/09/03 00:09:48;;;;;;;1.10;1.10;;;;;;;15.62;54.10;97946.59;6242936;23;20023;-86
2022/09/03 00:12:24;;;;;;;0.88;0.88;;;;;;;15.63;55.44;97950.84;6243185;23;20012;-90
2022/09/03 00:15:09;;;;;;;1.65;0.88;;;;;;;15.58;54.40;97952.56;6242721;23;20469;-85
2022/09/03 00:17:54;;;;;;;0.90;0.90;;;;;;;15.44;55.40;97941.47;6242255;23;20453;-85
2022/09/03 00:20:33;;;;;;;0.85;0.85;;;;;;;15.53;54.83;97950.63;6242437;23;20016;-85
2022/09/03 00:23:06;;;;;;;1.20;1.10;;;;;;;15.49;54.65;97945.00;6242424;23;20512;-84
2022/09/03 00:25:51;;;;;;;1.02;1.00;;;;;;;15.44;55.10;97958.13;6242398;22;20082;-85
2022/09/03 00:28:37;;;;;;;0.90;0.90;;;;;;;15.35;55.34;97953.41;6242952;23;20024;-86
2022/09/03 00:31:17;;;;;;;1.30;1.00;;;;;;;15.39;55.58;97952.72;6216277;23;20012;-85
2022/09/03 00:33:50;;;;;;;1.15;0.85;;;;;;;15.40;55.99;97942.97;6215937;23;20023;-85
2022/09/03 00:36:25;;;;;;;1.02;1.00;;;;;;;15.36;55.48;97947.94;6240160;23;20066;-85
2022/09/03 00:38:52;;;;;;;1.75;1.10;;;;;;;15.28;55.49;97940.34;6215747;23;20095;-86
2022/09/03 00:41:46;;;;;;;1.23;1.13;;;;;;;15.33;56.44;97942.28;6242693;23;20044;-84
2022/09/03 00:44:47;;;;;;;0.90;0.90;;;;;;;15.32;55.82;97940.69;6242648;23;20020;-84
2022/09/03 00:48:03;;;;;;;0.80;0.80;;;;;;;15.29;56.31;97949.88;6241918;23;20385;-83
2022/09/03 00:50:54;;;;;;;1.05;0.98;;;;;;;15.26;56.78;97942.41;6205013;23;20027;-84
2022/09/03 00:53:21;;;;;;;;;;;;;;;15.24;56.90;97944.50;6216014;23;20016;-84
2022/09/03 00:56:00;;;;;;;1.00;1.00;;;;;;;15.12;57.27;97949.00;6242369;23;19915;-85
2022/09/03 00:59:02;;;;;;;2.05;1.10;;;;;;;15.11;57.08;97957.94;6242674;23;20016;-84
2022/09/03 01:01:54;;;;;;;0.90;0.90;;;;;;;15.05;57.14;97958.88;6242311;23;20012;-84
2022/09/03 01:05:08;;;;;;;0.82;0.82;;;;;;;15.02;57.73;97954.88;6242603;23;20020;-83
2022/09/03 01:08:00;;;;;;;0.80;0.80;;;;;;;14.99;57.37;97953.50;6215856;23;20028;-83
2022/09/03 01:10:27;;;;;;;0.98;0.90;;;;;;;15.00;57.88;97954.31;6242318;23;20012;-84
2022/09/03 01:13:27;;;;;;;0.77;0.77;;;;;;;15.00;58.51;97949.03;6242195;23;20078;-83
2022/09/03 01:16:34;;;;;;;0.82;0.82;;;;;;;14.98;57.91;97951.88;6235990;23;20023;-85
2022/09/03 01:20:05;;;;;;;0.82;0.80;;;;;;;14.90;58.21;97951.44;6243231;23;20048;-84
2022/09/03 01:23:25;;;;;;;1.20;1.10;;;;;;;14.70;58.01;97951.78;6242596;23;20488;-87
2022/09/03 01:26:16;;;;;;;1.02;0.95;;;;;;;14.71;58.72;97962.09;6242025;22;20020;-84
2022/09/03 01:29:04;;;;;;;;;;;;;;;14.67;58.59;97955.66;6242789;23;20020;-86
2022/09/03 01:32:11;;;;;;;1.25;1.17;;;;;;;14.61;58.23;97946.03;6242561;23;19953;-85
2022/09/03 01:34:55;;;;;;;1.35;1.00;;;;;;;14.64;58.29;97953.50;6242507;23;20349;-84
2022/09/03 01:37:56;;;;;;;0.90;0.90;;;;;;;14.65;58.57;97957.75;6239463;23;20016;-84
2022/09/03 01:44:39;;;;;;;1.10;1.10;;;;;;;14.53;58.43;97954.28;6242201;23;20381;-86
2022/09/03 01:48:04;;;;;;;1.40;1.30;;;;;;;14.48;59.23;97945.44;6242253;23;20020;-85
2022/09/03 01:51:16;;;;;;;1.00;0.93;;;;;;;14.52;58.95;97954.53;6242231;23;20434;-83
2022/09/03 01:54:24;;;;;;;0.88;0.88;;;;;;;14.46;58.88;97958.84;6186058;23;20020;-84
2022/09/03 01:57:14;;;;;;;0.95;0.95;;;;;;;14.42;58.81;97960.31;6167767;23;20078;-83
2022/09/03 02:00:12;;;;;;;0.80;0.80;;;;;;;14.50;59.55;97965.28;6243271;23;20571;-83
2022/09/03 02:02:49;;;;;;;0.95;0.95;;;;;;;14.44;58.91;97955.63;6244089;23;20019;-84
2022/09/03 02:05:26;;;;;;;0.80;0.80;;;;;;;14.52;60.10;97968.53;6244308;23;20028;-84
2022/09/03 02:08:05;;;;;;;0.80;0.80;;;;;;;14.48;59.47;97967.38;6217648;23;20042;-83
2022/09/03 02:10:54;;;;;;;1.77;1.30;;;;;;;14.38;59.59;97961.81;6243860;23;20016;-84
2022/09/03 02:13:27;;;;;;;1.08;0.98;;;;;;;14.43;59.60;97965.38;6243858;23;20020;-83
2022/09/03 02:16:02;;;;;;;1.02;1.00;;;;;;;14.48;60.88;97963.91;6243728;23;20051;-83
2022/09/03 02:18:35;;;;;;;1.10;1.00;;;;;;;14.44;60.43;97960.88;6243874;23;20024;-84
2022/09/03 02:21:03;;;;;;;1.17;1.05;;;;;;;14.40;59.87;97957.91;6243131;23;20040;-83
2022/09/03 02:23:30;;;;;;;0.77;0.77;;;;;;;14.43;60.50;97964.56;6244163;23;20016;-83
2022/09/03 02:26:01;;;;;;;0.80;0.80;;;;;;;14.37;60.11;97968.13;6236752;22;20020;-83
2022/09/03 02:28:31;;;;;;;0.95;0.80;;;;;;;14.31;60.11;97971.66;6243711;22;20070;-83
2022/09/03 02:30:58;;;;;;;0.90;0.82;;;;;;;14.26;60.97;97974.97;6243702;22;20066;-83
2022/09/03 02:33:26;;;;;;;1.10;0.90;;;;;;;14.27;61.10;97963.38;6243121;23;20020;-83
2022/09/03 02:35:54;;;;;;;1.40;0.82;;;;;;;14.31;60.21;97961.09;6242193;22;20047;-82
2022/09/03 02:38:25;;;;;;;0.95;0.95;;;;;;;14.31;60.73;97964.53;6243364;22;20020;-82
2022/09/03 02:40:55;;;;;;;1.20;0.95;;;;;;;14.26;59.64;97968.88;6243606;22;20309;-83
2022/09/03 02:44:08;;;;;;;0.70;0.70;;;;;;;14.32;59.49;97963.50;6243730;22;20016;-83
2022/09/03 02:46:43;;;;;;;0.88;0.85;;;;;;;14.34;59.26;97956.19;6243618;22;20389;-83
2022/09/03 02:49:10;;;;;;;1.10;1.00;;;;;;;14.31;59.39;97955.81;6243004;22;20016;-83
2022/09/03 02:51:41;;;;;;;0.90;0.90;;;;;;;14.31;60.54;97956.63;6243204;22;20074;-83
2022/09/03 02:54:11;;;;;;;0.90;0.80;;;;;;;14.30;60.47;97960.31;6242896;22;20016;-83
2022/09/03 02:56:41;;;;;;;0.90;0.90;;;;;;;14.29;60.80;97957.91;6243243;22;20048;-83
2022/09/03 02:59:08;;;;;;;0.80;0.80;;;;;;;14.27;60.22;97954.66;6243776;22;20027;-83
2022/09/03 03:01:35;;;;;;;0.60;0.60;;;;;;;14.23;60.66;97946.41;6241305;23;20012;-83
2022/09/03 03:04:03;;;;;;;0.80;0.80;;;;;;;14.27;61.05;97944.91;6243316;22;20030;-83
2022/09/03 03:06:30;;;;;;;0.80;0.80;;;;;;;14.18;60.82;97941.81;6243688;22;20039;-82
2022/09/03 03:08:57;;;;;;;0.60;0.60;;;;;;;14.23;61.39;97948.25;6243411;22;20046;-83
2022/09/03 03:11:25;;;;;;;0.70;0.70;;;;;;;14.23;61.33;97945.63;6242928;22;20012;-83
2022/09/03 03:13:52;;;;;;;0.80;0.70;;;;;;;14.20;61.50;97945.00;6243055;22;20070;-83
2022/09/03 03:16:18;;;;;;;0.60;0.60;;;;;;;14.20;61.48;97934.47;6243855;22;20062;-83
2022/09/03 03:18:45;;;;;;;0.80;0.80;;;;;;;14.20;60.57;97936.31;6243739;22;20046;-83
2022/09/03 03:21:17;;;;;;;0.80;0.80;;;;;;;14.12;60.51;97934.81;6243629;22;20023;-83
2022/09/03 03:23:44;;;;;;;0.70;0.70;;;;;;;14.15;61.55;97952.00;6242364;23;20062;-82
2022/09/03 03:26:17;;;;;;;0.95;0.82;;;;;;;14.16;61.29;97954.44;6242657;22;20624;-83
2022/09/03 03:28:45;;;;;;;0.70;0.70;;;;;;;14.12;62.25;97963.81;6243106;23;20016;-83
2022/09/03 03:31:19;;;;;;;0.90;0.90;;;;;;;14.05;62.16;97955.19;6242487;23;20012;-83
2022/09/03 03:33:54;;;;;;;0.70;0.70;;;;;;;13.99;61.70;97953.47;6242993;23;20134;-82
2022/09/03 03:36:24;;;;;;;0.70;0.70;;;;;;;14.04;62.33;97961.50;6239473;23;20016;-83
2022/09/03 03:38:56;;;;;;;0.73;0.73;;;;;;;14.01;62.16;97953.22;6242771;23;20031;-82
2022/09/03 03:41:30;;;;;;;0.80;0.80;;;;;;;13.95;62.50;97941.75;6243213;23;20024;-83
2022/09/03 03:44:00;;;;;;;0.80;0.80;;;;;;;13.96;62.30;97951.25;6242519;23;20020;-83
2022/09/03 03:46:36;;;;;;;0.93;0.93;;;;;;;13.90;62.28;97952.16;6216078;23;20027;-82
2022/09/03 03:49:07;;;;;;;0.90;0.80;;;;;;;13.92;62.11;97952.75;6242782;23;20048;-83
2022/09/03 03:51:36;;;;;;;1.02;0.98;;;;;;;13.88;62.30;97951.59;6242843;23;20012;-83
2022/09/03 03:54:04;;;;;;;0.80;0.80;;;;;;;13.83;62.32;97946.97;6240650;23;20017;-82
2022/09/03 03:56:33;;;;;;;1.42;0.90;;;;;;;13.86;63.06;97943.09;6242466;23;20373;-83
2022/09/03 03:59:00;;;;;;;0.80;0.80;;;;;;;13.84;62.92;97945.16;6242514;23;20291;-83
2022/09/03 04:01:28;;;;;;;0.80;0.80;;;;;;;13.82;63.37;97942.75;6243236;23;20112;-83
2022/09/03 04:03:58;;;;;;;0.80;0.80;;;;;;;13.79;64.04;97942.38;6242719;23;20020;-83
2022/09/03 04:06:26;;;;;;;0.80;0.80;;;;;;;13.80;63.67;97954.53;6242582;23;20030;-83
2022/09/03 04:08:52;;;;;;;0.85;0.85;;;;;;;13.76;64.52;97948.09;6215846;23;20070;-84
2022/09/03 04:11:22;;;;;;;0.80;0.80;;;;;;;13.75;63.72;97952.56;6242906;23;20070;-84
2022/09/03 04:13:51;;;;;;;1.10;1.00;;;;;;;13.64;63.44;97942.78;6243238;23;20023;-83
2022/09/03 04:16:25;;;;;;;1.17;1.10;;;;;;;13.52;64.13;97940.09;6243013;23;20339;-83
2022/09/03 04:18:55;;;;;;;0.90;0.90;;;;;;;13.49;64.68;97948.41;6215196;23;20437;-83
2022/09/03 04:21:27;;;;;;;0.90;0.90;;;;;;;13.48;63.67;97944.19;6242183;23;20016;-84
2022/09/03 04:23:55;;;;;;;1.30;1.00;;;;;;;13.54;64.73;97955.66;6242667;23;20023;-83
2022/09/03 04:26:32;;;;;;;0.75;0.75;;;;;;;13.53;64.77;97948.78;6242424;23;20016;-82
2022/09/03 04:29:04;;;;;;;1.00;1.00;;;;;;;13.53;64.41;97939.06;6242375;23;20422;-81
2022/09/03 04:31:33;;;;;;;0.80;0.80;;;;;;;13.53;63.70;97941.69;6242184;23;20095;-83
2022/09/03 04:34:00;;;;;;;0.93;0.93;;;;;;;13.59;64.75;97948.72;6215888;23;20496;-83
2022/09/03 04:36:29;;;;;;;1.10;1.10;;;;;;;13.47;64.51;97950.50;6238925;23;20373;-83
2022/09/03 04:39:00;;;;;;;1.20;1.10;;;;;;;13.47;65.64;97949.69;6242457;23;20019;-83
2022/09/03 04:41:29;;;;;;;1.10;1.00;;;;;;;13.36;64.58;97948.59;6242406;23;20043;-83
2022/09/03 04:43:58;;;;;;;0.80;0.80;;;;;;;13.39;65.66;97950.78;6242342;23;20081;-83
2022/09/03 04:46:32;;;;;;;0.90;0.90;;;;;;;13.46;65.83;97954.16;6242249;23;20016;-83
2022/09/03 04:48:59;;;;;;;0.95;0.90;;;;;;;13.53;65.12;97956.69;6242454;23;20020;-83
2022/09/03 04:51:27;;;;;;;0.75;0.75;;;;;;;13.56;65.29;97954.44;6242785;23;20082;-83
2022/09/03 04:54:00;;;;;;;0.82;0.82;;;;;;;13.59;65.48;97963.72;6242412;23;20016;-83
2022/09/03 04:56:34;;;;;;;0.80;0.80;;;;;;;13.64;65.27;97959.41;6242403;23;20020;-83
2022/09/03 04:59:08;;;;;;;0.85;0.85;;;;;;;13.72;65.87;97960.09;6242477;23;20016;-83
2022/09/03 05:01:38;;;;;;;0.80;0.80;;;;;;;13.80;65.49;97970.38;6241539;23;20020;-82
2022/09/03 05:04:07;;;;;;;0.80;0.80;;;;;;;13.81;65.66;97972.78;6242303;23;20024;-83
2022/09/03 05:06:36;;;;;;;0.80;0.80;;;;;;;13.88;65.33;97972.69;6215180;23;20020;-84
2022/09/03 05:09:04;;;;;;;0.80;0.80;;;;;;;13.92;64.42;97969.38;6242061;23;20016;-83
2022/09/03 05:11:31;;;;;;;0.88;0.88;;;;;;;14.00;64.42;97965.63;6214848;23;20019;-83
2022/09/03 05:13:59;;;;;;;1.05;0.80;;;;;;;14.00;65.40;97975.34;6242324;23;20039;-83
2022/09/03 05:16:29;;;;;;;0.90;0.90;;;;;;;14.00;65.11;97970.09;6241084;23;20054;-83
2022/09/03 05:18:58;;;;;;;1.00;0.90;;;;;;;14.07;65.73;97965.50;6242275;23;20020;-83
2022/09/03 05:21:27;;;;;;;2.65;1.20;;;;;;;13.94;62.85;97969.16;6241959;23;20020;-84
2022/09/03 05:23:54;;;;;;;1.08;0.98;;;;;;;13.94;64.03;97955.97;6242053;23;20357;-84
2022/09/03 05:26:24;;;;;;;1.00;1.00;;;;;;;13.92;64.01;97965.94;6241697;22;20433;-84
2022/09/03 05:29:00;;;;;;;1.27;1.10;;;;;;;13.86;64.67;97966.84;6243120;23;20589;-83
2022/09/03 05:31:30;;;;;;;1.70;1.58;;;;;;;13.80;66.74;97978.28;6242102;23;20070;-84
2022/09/03 05:34:01;;;;;;;1.30;1.20;;;;;;;13.79;66.32;97974.81;6244871;23;20048;-83
2022/09/03 05:36:32;;;;;;;1.70;1.60;;;;;;;13.64;66.20;97977.84;6242172;23;20066;-83
2022/09/03 05:39:00;;;;;;;2.00;1.50;;;;;;;13.69;65.59;97979.03;6245152;23;20238;-82
2022/09/03 05:41:28;;;;;;;1.00;1.00;;;;;;;13.82;65.85;97978.84;6244979;23;20023;-82
2022/09/03 05:43:57;;;;;;;0.95;0.95;;;;;;;13.94;65.44;97969.16;6245780;23;20079;-83
2022/09/03 05:46:32;;;;;;;1.20;1.10;;;;;;;14.06;64.48;97980.53;6218563;23;20020;-83
2022/09/03 05:49:01;;;;;;;1.20;1.10;;;;;;;14.18;65.33;97965.53;6245262;23;20015;-81
2022/09/03 05:51:29;;;;;;;1.02;1.00;;;;;;;14.31;65.68;97967.19;6244576;23;20438;-82
2022/09/03 05:53:57;;;;;;;2.05;1.33;;;;;;;14.29;62.54;97971.88;6245675;23;20012;-83
2022/09/03 05:56:27;;;;;;;1.40;1.30;;;;;;;14.34;63.16;97966.75;6245477;23;20020;-85
2022/09/03 05:59:02;;;;;;;1.40;1.30;;;;;;;14.40;62.74;97972.94;6245002;23;20020;-83
2022/09/03 06:01:35;;;;;;;2.08;1.88;;;;;;;14.45;62.38;97973.03;6245031;23;20019;-84
2022/09/03 06:04:13;;;;;;;1.52;1.42;;;;;;;14.48;61.84;97970.00;6218960;23;20023;-84
2022/09/03 06:06:43;;;;;;;1.48;1.10;;;;;;;14.72;64.08;97984.81;6244867;23;20077;-83
2022/09/03 06:09:14;;;;;;;1.55;1.45;;;;;;;14.68;60.64;97978.38;6245569;23;20016;-84
2022/09/03 06:11:41;;;;;;;;;;;;;;;14.73;60.27;97986.44;6246319;23;20538;-87
2022/09/03 06:14:12;;;;;;;2.35;1.00;;;;;;;14.77;60.70;97986.00;6245484;23;20375;-83
2022/09/03 06:16:42;;;;;;;1.45;1.33;;;;;;;14.78;60.84;97974.38;6245357;23;20051;-84
2022/09/03 06:19:12;;;;;;;1.48;1.38;;;;;;;14.91;60.46;97979.44;6245137;23;20024;-86
2022/09/03 06:21:44;;;;;;;2.15;1.63;;;;;;;14.91;60.46;97982.88;6218875;23;20414;-85
2022/09/03 06:24:18;;;;;;;2.65;1.60;;;;;;;15.01;59.22;97984.94;6245198;22;20020;-85
2022/09/03 06:26:46;;;;;;;1.60;1.50;;;;;;;15.16;59.64;97985.28;6245328;23;20315;-85
2022/09/03 06:29:13;;;;;;;1.83;1.50;;;;;;;15.39;57.91;97983.63;6245477;23;20016;-86
2022/09/03 06:31:40;;;;;;;2.33;1.50;;;;;;;15.47;57.43;97985.91;6218963;23;20016;-85
2022/09/03 06:34:07;;;;;;;1.38;1.27;;;;;;;15.66;57.17;97994.53;6245458;23;20022;-86
2022/09/03 06:36:34;;;;;;;1.38;1.27;;;;;;;15.77;57.08;97991.84;6241926;23;20020;-85
2022/09/03 06:39:07;;;;;;;1.70;1.52;;;;;;;15.86;56.73;97986.97;6220269;23;20042;-83
2022/09/03 06:41:34;;;;;;;1.38;1.27;;;;;;;16.24;56.61;97988.97;6244400;23;20063;-86
2022/09/03 06:44:05;;;;;;;1.35;1.23;;;;;;;16.45;55.67;97987.50;6244910;23;20091;-85
2022/09/03 06:46:34;;;;;;;;;;;;;;;16.47;55.44;97989.91;6244435;23;20461;-84
2022/09/03 06:49:02;;;;;;;2.08;1.30;;;;;;;16.48;54.14;97987.00;6243784;23;19915;-88
2022/09/03 06:51:31;;;;;;;1.40;1.30;;;;;;;16.60;54.89;97995.66;6217094;23;20051;-86
2022/09/03 06:54:05;;;;;;;1.70;1.60;;;;;;;16.64;55.13;97993.34;6244000;23;20017;-85
2022/09/03 06:56:34;;;;;;;1.85;1.42;;;;;;;16.54;55.44;97993.19;6243683;23;20486;-83
2022/09/03 06:59:13;;;;;;;1.45;1.30;;;;;;;16.58;55.95;98012.84;6218551;23;20012;-85
2022/09/03 07:01:42;;;;;;;1.88;1.40;;;;;;;16.72;54.87;97998.28;6243606;23;20016;-85
2022/09/03 07:04:15;;;;;;;1.42;1.33;;;;;;;17.01;53.64;98008.78;6243030;23;20027;-86
2022/09/03 07:06:43;;;;;;;1.23;1.13;;;;;;;17.41;54.34;97997.13;6217197;23;20099;-83
2022/09/03 07:09:12;;;;;;;1.30;1.20;;;;;;;17.72;52.75;97985.88;6243647;23;20423;-87
2022/09/03 07:11:45;;;;;;;1.30;1.20;;;;;;;18.06;51.17;97985.72;6243520;23;20020;-84
2022/09/03 07:14:15;;;;;;;2.33;1.40;;;;;;;18.06;51.58;97980.41;6216963;23;20043;-85
2022/09/03 07:16:42;;;;;;;1.17;1.10;;;;;;;18.10;51.25;97976.97;6217146;23;20016;-87
2022/09/03 07:19:09;;;;;;;1.13;1.02;;;;;;;18.28;50.79;97978.47;6243582;23;20042;-85
2022/09/03 07:21:36;;;;;;;1.40;1.30;;;;;;;18.18;51.19;97973.09;6217309;23;20405;-86
2022/09/03 07:24:05;;;;;;;1.40;1.30;;;;;;;18.13;50.30;97975.69;6216559;22;20062;-87
2022/09/03 07:26:38;;;;;;;1.77;1.30;;;;;;;18.39;50.49;97969.56;6212214;23;20016;-86
2022/09/03 07:29:06;;;;;;;1.20;1.05;;;;;;;18.69;51.06;97973.53;6243119;23;20020;-86
2022/09/03 07:31:40;;;;;;;1.67;1.50;;;;;;;18.67;48.80;97965.03;6243716;23;20070;-87
2022/09/03 07:34:11;;;;;;;1.77;1.50;;;;;;;18.67;48.80;97968.50;6191702;23;20024;-85
2022/09/03 07:36:44;;;;;;;;;;;;;;;18.70;48.55;97965.31;6215268;23;20020;-85
2022/09/03 07:39:30;;;;;;;1.38;1.30;;;;;;;18.84;48.23;97970.19;6221437;23;19977;-87
2022/09/03 07:42:05;;;;;;;2.35;1.25;;;;;;;18.93;47.94;97969.44;6217618;23;20070;-84
2022/09/03 07:44:32;;;;;;;1.70;1.60;;;;;;;18.90;48.46;97972.63;6216337;23;20016;-87
2022/09/03 07:46:59;;;;;;;1.83;1.30;;;;;;;18.84;49.06;97972.84;6190967;23;20020;-90
2022/09/03 07:49:28;;;;;;;1.30;1.20;;;;;;;18.89;49.74;97983.50;6240969;23;20074;-86
2022/09/03 07:51:55;;;;;;;1.63;1.40;;;;;;;18.84;49.01;97971.00;6191453;23;20016;-88
2022/09/03 07:54:24;;;;;;;2.40;1.45;;;;;;;18.85;49.34;97980.56;6216824;23;20043;-84
2022/09/03 07:56:52;;;;;;;1.45;1.20;;;;;;;18.76;49.33;97968.81;6216332;23;20066;-87
2022/09/03 07:59:21;;;;;;;1.42;1.30;;;;;;;18.66;48.70;97955.44;6216461;23;20497;-88
2022/09/03 08:01:49;;;;;;;1.55;1.35;;;;;;;18.74;48.58;97965.59;6244029;23;20023;-87
2022/09/03 08:04:16;;;;;;;1.40;1.23;;;;;;;19.09;47.64;97967.69;6242521;23;20052;-87
2022/09/03 08:06:42;;;;;;;1.52;1.42;;;;;;;19.32;47.54;97976.31;6243160;23;20016;-85
2022/09/03 08:09:12;;;;;;;1.20;1.10;;;;;;;19.64;47.67;97981.53;6242676;23;20016;-85
2022/09/03 08:11:42;;;;;;;1.47;1.10;;;;;;;19.88;46.98;97985.34;6216013;23;20070;-87
2022/09/03 08:14:12;;;;;;;1.40;1.30;;;;;;;19.73;46.94;97978.13;6215765;23;20016;-87
2022/09/03 08:16:48;;;;;;;1.35;1.10;;;;;;;19.61;46.85;97974.06;6215072;23;20066;-86
2022/09/03 08:19:17;;;;;;;1.50;1.40;;;;;;;19.73;46.51;97978.13;6215356;23;20074;-83
2022/09/03 08:21:44;;;;;;;1.40;1.20;;;;;;;20.02;46.69;97983.75;6242113;23;20434;-88
2022/09/03 08:24:15;;;;;;;1.45;1.25;;;;;;;20.14;45.72;97982.72;6241623;22;20016;-86
2022/09/03 08:26:42;;;;;;;1.13;1.10;;;;;;;20.31;44.88;97980.63;6241624;23;20504;-85
2022/09/03 08:29:17;;;;;;;1.73;1.40;;;;;;;20.46;45.13;97970.00;6242044;23;20012;-88
2022/09/03 08:31:44;;;;;;;1.33;1.23;;;;;;;20.53;44.51;97973.22;6242830;23;20016;-88
2022/09/03 08:34:13;;;;;;;1.58;1.35;;;;;;;20.72;44.09;97978.00;6242493;23;20016;-86
2022/09/03 08:36:43;;;;;;;1.13;1.13;;;;;;;20.84;43.94;97965.97;6211216;23;20020;-87
2022/09/03 08:39:15;;;;;;;1.30;1.20;;;;;;;20.91;43.17;97970.25;6241999;23;20020;-84
2022/09/03 08:42:10;;;;;;;1.40;1.30;;;;;;;21.27;43.89;97968.28;6241908;23;20020;-90
2022/09/03 08:44:55;;;;;;;1.35;1.25;;;;;;;21.57;42.55;97975.41;6215374;23;20054;-86
2022/09/03 08:47:42;;;;;;;1.30;1.20;;;;;;;21.87;41.73;97977.13;6242866;23;20087;-89
2022/09/03 08:50:25;;;;;;;1.73;1.20;;;;;;;22.18;42.09;97983.13;6242115;23;20073;-86
2022/09/03 08:53:29;;;;;;;1.85;1.48;;;;;;;22.52;41.70;97980.47;6238690;23;20012;-88
2022/09/03 08:56:06;;;;;;;1.25;1.13;;;;;;;22.59;41.29;97978.28;6239229;23;20016;-84
2022/09/03 08:58:37;;;;;;;2.05;1.20;;;;;;;22.47;41.67;97980.50;6241344;23;20090;-86
2022/09/03 09:01:34;;;;;;;1.25;1.15;;;;;;;22.66;40.49;97969.91;6238702;23;20070;-89
2022/09/03 09:04:29;;;;;;;2.40;1.50;;;;;;;22.88;40.71;97964.16;6239525;23;20044;-86
2022/09/03 09:07:25;;;;;;;1.70;1.17;;;;;;;22.74;41.18;97971.22;6239926;23;20437;-85
2022/09/03 09:10:15;;;;;;;1.25;1.15;;;;;;;22.53;41.50;97962.56;6241723;23;20027;-84
2022/09/03 09:13:07;;;;;;;1.20;1.10;;;;;;;22.65;40.09;97955.75;6239773;23;20020;-82
2022/09/03 09:16:03;;;;;;;1.27;1.17;;;;;;;22.76;39.83;97955.69;6213750;23;20412;-87
2022/09/03 09:18:55;;;;;;;1.42;1.30;;;;;;;22.47;40.77;97956.44;6213077;23;20489;-85
2022/09/03 09:21:44;;;;;;;2.17;1.40;;;;;;;22.35;41.25;97942.66;6213440;23;20062;-88
2022/09/03 09:24:27;;;;;;;1.73;1.30;;;;;;;22.29;42.34;97931.22;6212747;22;20073;-87
2022/09/03 09:27:01;;;;;;;1.58;1.48;;;;;;;22.12;42.11;97934.28;6240596;23;20016;-85
2022/09/03 09:29:36;;;;;;;1.67;1.40;;;;;;;22.02;41.44;97923.66;6239443;23;20020;-87
2022/09/03 09:32:08;;;;;;;2.47;1.63;;;;;;;22.10;41.83;97927.63;6239569;23;20353;-88
2022/09/03 09:34:37;;;;;;;1.42;1.30;;;;;;;22.26;41.81;97934.47;6239562;23;20016;-90
2022/09/03 09:37:10;;;;;;;1.60;1.50;;;;;;;22.05;41.75;97931.09;6233884;23;20062;-87
2022/09/03 09:39:40;;;;;;;1.52;1.42;;;;;;;22.17;41.75;97928.91;6212753;23;20024;-85
2022/09/03 09:42:10;;;;;;;1.52;1.42;;;;;;;22.24;42.36;97925.91;6239424;23;20417;-87
2022/09/03 09:44:42;;;;;;;1.20;1.10;;;;;;;22.42;43.28;97919.88;6214689;23;20012;-86
2022/09/03 09:47:22;;;;;;;1.50;1.38;;;;;;;22.44;41.12;97916.94;6241990;23;20052;-87
2022/09/03 09:49:57;;;;;;;1.40;1.30;;;;;;;22.63;41.66;97917.84;6242396;23;20048;-87
2022/09/03 09:52:28;;;;;;;1.80;1.58;;;;;;;22.65;41.63;97918.34;6242471;23;20468;-89
2022/09/03 09:55:14;;;;;;;1.80;1.60;;;;;;;22.58;40.83;97922.44;6242584;23;20012;-87
2022/09/03 09:57:40;;;;;;;1.50;1.40;;;;;;;22.62;41.00;97921.59;6242255;23;20023;-90
2022/09/03 10:00:15;;;;;;;2.10;1.50;;;;;;;22.68;42.37;97912.44;6215928;23;20016;-86
2022/09/03 10:02:53;;;;;;;2.38;1.50;;;;;;;22.63;41.27;97917.84;6242323;23;20016;-89
2022/09/03 10:05:32;;;;;;;2.13;1.40;;;;;;;22.92;41.17;97925.06;6216297;23;20019;-88
2022/09/03 10:08:19;;;;;;;1.40;1.30;;;;;;;22.94;41.49;97920.22;6191565;23;20050;-86
2022/09/03 10:10:50;;;;;;;2.58;1.40;;;;;;;22.88;40.95;97913.34;6244247;23;20507;-86
2022/09/03 10:13:46;;;;;;;2.22;1.70;;;;;;;22.75;41.46;97914.00;6215633;23;20013;-88
2022/09/03 10:16:41;;;;;;;1.95;1.42;;;;;;;22.91;41.15;97910.09;6215776;23;20073;-90
2022/09/03 10:19:29;;;;;;;1.55;1.30;;;;;;;22.99;40.72;97927.41;6241688;23;20023;-88
2022/09/03 10:22:22;;;;;;;1.83;1.50;;;;;;;22.87;41.32;97912.53;6243765;23;20016;-83
2022/09/03 10:25:02;;;;;;;1.50;1.40;;;;;;;23.13;41.49;97907.69;6243531;22;20043;-85
2022/09/03 10:27:29;;;;;;;2.10;1.50;;;;;;;23.16;39.41;97909.03;6243905;23;20027;-87
2022/09/03 10:29:59;;;;;;;2.45;1.60;;;;;;;23.37;39.71;97909.56;6244776;23;20020;-88
2022/09/03 10:32:49;;;;;;;1.67;1.40;;;;;;;23.52;39.56;97914.72;6217366;23;20016;-90
2022/09/03 10:35:29;;;;;;;1.67;1.30;;;;;;;23.62;38.63;97898.53;6244223;23;20438;-86
2022/09/03 10:38:32;;;;;;;1.20;1.17;;;;;;;23.74;40.21;97890.88;6238879;23;20035;-85
2022/09/03 10:41:03;;;;;;;1.33;1.23;;;;;;;23.58;40.84;97886.81;6217260;23;20090;-86
2022/09/03 10:44:14;;;;;;;1.40;1.30;;;;;;;23.40;39.51;97885.72;6243895;23;20058;-88
2022/09/03 10:47:03;;;;;;;1.50;1.40;;;;;;;23.63;39.20;97889.47;6243733;23;20062;-88
2022/09/03 10:49:50;;;;;;;1.50;1.40;;;;;;;23.68;39.85;97891.25;6217313;23;20015;-85
2022/09/03 10:52:36;;;;;;;1.80;1.33;;;;;;;24.21;39.90;97891.78;6218152;23;20016;-90
2022/09/03 10:55:23;;;;;;;1.35;1.17;;;;;;;24.37;38.81;97883.53;6217825;23;20444;-87
2022/09/03 10:58:53;;;;;;;2.17;1.50;;;;;;;24.43;38.37;97882.34;6244202;23;20039;-86
2022/09/03 11:02:13;;;;;;;1.35;1.25;;;;;;;24.38;39.02;97875.19;6188097;23;20024;-87
2022/09/03 11:04:53;;;;;;;1.73;1.43;;;;;;;24.51;38.84;97876.28;6218133;23;20023;-88
2022/09/03 11:07:27;;;;;;;1.40;1.30;;;;;;;24.81;38.37;97870.38;6218467;23;20342;-86
2022/09/03 11:10:25;;;;;;;2.00;1.80;;;;;;;25.19;39.16;97875.56;6218754;23;20049;-86
2022/09/03 11:12:56;;;;;;;1.45;1.30;;;;;;;25.38;37.19;97882.72;6217183;23;20384;-88
2022/09/03 11:15:32;;;;;;;2.08;1.15;;;;;;;25.33;37.97;97891.66;6218967;23;20066;-89
2022/09/03 11:18:30;;;;;;;2.45;1.40;;;;;;;25.09;38.18;97887.31;6218040;23;20107;-90
2022/09/03 11:21:03;;;;;;;1.75;1.50;;;;;;;25.05;38.32;97888.97;6229727;23;20020;-91
2022/09/03 11:23:44;;;;;;;2.45;1.50;;;;;;;25.16;37.82;97881.53;6244031;23;20012;-90
2022/09/03 11:26:16;;;;;;;1.55;1.45;;;;;;;25.34;37.08;97874.44;6217648;23;20020;-88
2022/09/03 11:29:13;;;;;;;1.00;1.00;;;;;;;25.61;36.38;97866.34;6243873;23;20692;-88
2022/09/03 11:32:06;;;;;;;1.65;1.40;;;;;;;25.64;37.22;97859.56;6216299;23;20066;-89
2022/09/03 11:34:53;;;;;;;2.35;1.58;;;;;;;25.52;36.70;97852.03;6243706;23;20066;-86
2022/09/03 11:37:25;;;;;;;1.58;1.48;;;;;;;25.70;37.14;97857.56;6213740;23;20024;-88
2022/09/03 11:40:17;;;;;;;1.60;1.50;;;;;;;25.57;36.95;97864.56;6243836;23;20024;-86
2022/09/03 11:42:44;;;;;;;2.03;1.40;;;;;;;25.41;37.71;97860.63;6243703;23;20016;-86
2022/09/03 11:45:31;;;;;;;3.20;1.90;;;;;;;25.62;38.23;97859.88;6217666;23;20098;-84
2022/09/03 11:47:58;;;;;;;1.50;1.40;;;;;;;25.86;37.49;97859.63;6243323;23;20020;-88
2022/09/03 11:50:32;;;;;;;2.00;1.80;;;;;;;25.85;36.49;97865.31;6217822;23;20016;-88
2022/09/03 11:53:33;;;;;;;1.73;1.50;;;;;;;25.87;36.96;97863.09;6217876;23;20043;-87
2022/09/03 11:56:19;;;;;;;2.20;1.50;;;;;;;25.73;36.89;97854.25;6212259;23;20024;-84
2022/09/03 11:59:22;;;;;;;1.75;1.50;;;;;;;25.77;37.55;97853.38;6244576;23;20384;-85
2022/09/03 12:02:21;;;;;;;3.67;2.45;;;;;;;25.47;38.20;97849.47;6244508;23;20016;-85
2022/09/03 12:05:41;;;;;;;2.08;1.70;;;;;;;25.83;39.06;97846.78;6238948;23;20021;-86
2022/09/03 12:09:01;;;;;;;2.40;2.20;;;;;;;25.81;38.69;97850.88;6244252;23;20020;-86
2022/09/03 12:12:05;;;;;;;2.10;2.00;;;;;;;26.01;38.32;97852.28;6244002;23;20016;-88
2022/09/03 12:15:00;;;;;;;2.05;1.92;;;;;;;26.12;37.82;97843.66;6191581;23;20066;-86
2022/09/03 12:18:18;;;;;;;1.90;1.80;;;;;;;26.13;38.09;97844.47;6244334;23;20564;-90
2022/09/03 12:20:51;;;;;;;1.85;1.75;;;;;;;26.16;37.77;97835.81;6218132;23;20086;-84
2022/09/03 12:23:34;;;;;;;3.60;2.40;;;;;;;26.01;37.73;97826.22;6217596;23;20019;-89
2022/09/03 12:26:06;;;;;;;2.40;2.20;;;;;;;26.05;38.69;97829.88;6242631;22;20032;-89
2022/09/03 12:28:38;;;;;;;2.15;2.03;;;;;;;26.14;39.56;97819.97;6247056;22;20043;-88